OISS

Shiraz Shahid Dastghaib International Airport

Shiraz, Iran
TAF OISS 221100Z 2212/2318 24008KT CAVOK TEMPO 2212/2215 32014KT
Issued Valid From Valid To
Jan-22 @ 11:00 UTC
(6 hours ago)
Jan-22 @ 12:00 UTC
(5 hours ago)
Jan-23 @ 18:00 UTC
(-1 days ago)
Jan-22 @ 12:00 to Jan-23 @ 18:00
TAF OISS 221100Z 2212/2318 24008KT CAVOK
Wind Visibility Clouds Conditions
240° at 8 knots 10,000+ meters
  • No significant clouds
Expired Click to View Jan-22 @ 12:00 to Jan-22 @ 15:00
TEMPO 2212/2215 32014KT
Wind
320° at 14 knots
TAF OISS 221100Z 2212/2318 24008KT CAVOK TEMPO 2212/2215 32014KT
Issued Jan-22 @ 11:00 UTC
(6 hours ago)
Valid From Jan-22 @ 12:00 UTC
(5 hours ago)
Valid To Jan-23 @ 18:00 UTC
(-1 days ago)
Jan-22 @ 12:00 - Jan-23 @ 18:00
Wind Visibility
240° at 8 knots 10,000+ meters
Clouds
  • No significant clouds
Conditions
Jan-22 @ 12:00 - Jan-22 @ 15:00
Wind
320° at 14 knots